Time;durP1;ratioP1;P1;durP2;ratioP2;P2;SDS_P1;SDS_P2;PMS_P1;PMS_P2;Temp;Humidity;BMP_temperature;BMP_pressure;BME280_temperature;BME280_humidity;BME280_pressure;Samples;Min_cycle;Max_cycle;Signal;HPM_P1;HPM_P2
2021/01/10 00:32:38;;;;;;;0.40;0.40;;;;;;;-1.78;84.83;100001.09;4921328;29;20212;-85
2021/01/10 00:52:58;;;;;;;0.40;0.40;;;;;;;-2.11;84.84;100017.94;4859259;29;20178;-85
2021/01/10 00:56:47;;;;;;;0.50;0.50;;;;;;;-2.13;85.39;100030.34;4849091;29;20244;-86
2021/01/10 01:00:47;;;;;;;0.40;0.40;;;;;;;-2.14;85.17;100028.66;4843998;29;20187;-86
2021/01/10 01:04:35;;;;;;;0.43;0.43;;;;;;;-2.24;85.41;100033.84;4869374;29;20228;-85
2021/01/10 01:08:29;;;;;;;0.40;0.40;;;;;;;-2.32;85.59;100019.72;4862175;29;20211;-85
2021/01/10 01:12:14;;;;;;;0.40;0.40;;;;;;;-2.37;86.02;100021.88;4853663;29;20240;-85
2021/01/10 01:15:22;;;;;;;0.40;0.40;;;;;;;-2.33;85.84;100025.91;4868115;29;20204;-85
2021/01/10 01:19:44;;;;;;;0.40;0.40;;;;;;;-2.33;85.88;100029.38;4925448;29;20197;-85
2021/01/10 01:23:14;;;;;;;0.50;0.50;;;;;;;-2.44;85.58;100023.38;4926177;29;20211;-85
2021/01/10 01:27:00;;;;;;;0.40;0.40;;;;;;;-2.53;85.51;100022.34;4918380;29;20184;-85
2021/01/10 01:30:14;;;;;;;0.40;0.40;;;;;;;-2.55;86.02;100026.88;4914113;29;20210;-85
2021/01/10 01:33:34;;;;;;;0.50;0.50;;;;;;;-2.59;85.78;100019.38;4907252;29;20207;-84
2021/01/10 01:39:59;;;;;;;0.40;0.40;;;;;;;-2.66;85.82;100026.94;4925714;29;20174;-85
2021/01/10 01:50:41;;;;;;;0.40;0.40;;;;;;;-2.77;85.68;100011.25;4925455;29;20213;-85
2021/01/10 02:05:34;;;;;;;0.40;0.40;;;;;;;-2.76;86.03;100028.66;4845585;29;20200;-84
2021/01/10 02:08:40;;;;;;;0.50;0.50;;;;;;;-2.94;85.98;100009.19;4849653;29;20266;-82
2021/01/10 02:12:16;;;;;;;0.40;0.40;;;;;;;-2.93;86.13;100013.44;4849627;29;20307;-85
2021/01/10 02:18:55;;;;;;;0.40;0.40;;;;;;;-2.97;85.96;100012.88;4837242;29;20212;-83
2021/01/10 02:22:21;;;;;;;0.50;0.50;;;;;;;-2.98;86.36;100020.84;4849606;29;20179;-84
2021/01/10 02:25:54;;;;;;;0.40;0.40;;;;;;;-3.12;86.40;100011.47;4833924;29;20196;-84
2021/01/10 02:29:44;;;;;;;0.50;0.50;;;;;;;-3.05;86.39;100036.25;4849334;29;20217;-85
2021/01/10 02:32:47;;;;;;;0.50;0.50;;;;;;;-3.17;86.15;100032.81;4819913;29;20230;-85
2021/01/10 02:36:22;;;;;;;0.40;0.40;;;;;;;-3.14;86.53;100035.22;4795230;29;20188;-85
2021/01/10 02:47:47;;;;;;;0.50;0.50;;;;;;;-3.27;86.82;100034.53;4849061;29;20179;-84
2021/01/10 02:50:57;;;;;;;0.50;0.50;;;;;;;-3.38;86.73;100025.84;4881186;29;20237;-84
2021/01/10 02:53:58;;;;;;;0.50;0.50;;;;;;;-3.42;86.52;100027.88;4907133;29;20206;-85
2021/01/10 02:57:33;;;;;;;0.50;0.50;;;;;;;-3.50;86.80;100021.59;4912258;29;20473;-84
2021/01/10 03:01:02;;;;;;;0.40;0.40;;;;;;;-3.53;86.59;100020.00;4924220;29;20445;-84
2021/01/10 03:08:06;;;;;;;0.40;0.40;;;;;;;-3.48;86.27;100038.81;4926322;29;20409;-83
2021/01/10 03:11:38;;;;;;;0.40;0.40;;;;;;;-3.55;85.84;100030.59;4942629;29;20520;-84
2021/01/10 03:15:00;;;;;;;0.40;0.40;;;;;;;-3.74;86.17;100013.84;4929590;29;20452;-84
2021/01/10 03:18:07;;;;;;;0.50;0.50;;;;;;;-3.73;86.82;100021.56;4924348;29;20425;-84
2021/01/10 03:21:01;;;;;;;0.40;0.40;;;;;;;-3.75;86.61;100010.41;4922909;29;20433;-84
2021/01/10 03:24:12;;;;;;;0.40;0.40;;;;;;;-3.81;87.04;100023.97;4907366;29;20448;-84
2021/01/10 03:27:13;;;;;;;0.40;0.40;;;;;;;-3.67;86.94;100043.84;4922887;29;20433;-84
2021/01/10 03:30:06;;;;;;;0.40;0.40;;;;;;;-3.74;87.32;100037.41;4908488;29;20449;-83
2021/01/10 03:33:04;;;;;;;0.40;0.40;;;;;;;-3.80;87.36;100028.25;4906633;29;20457;-83
2021/01/10 03:36:09;;;;;;;0.50;0.50;;;;;;;-3.80;87.39;100030.88;4906328;29;20493;-84
2021/01/10 03:39:16;;;;;;;0.40;0.40;;;;;;;-3.79;87.54;100048.25;4906826;29;20425;-84
2021/01/10 03:42:17;;;;;;;0.50;0.50;;;;;;;-3.77;87.26;100042.88;4904020;29;20185;-83
2021/01/10 03:45:25;;;;;;;0.40;0.40;;;;;;;-3.74;87.28;100042.66;4922012;29;20445;-84
2021/01/10 03:48:31;;;;;;;0.40;0.40;;;;;;;-3.90;87.31;100024.66;4922640;29;20452;-83
2021/01/10 03:51:33;;;;;;;0.40;0.40;;;;;;;-3.89;87.54;100028.13;4864041;29;20481;-83
2021/01/10 03:54:40;;;;;;;0.40;0.40;;;;;;;-3.82;87.37;100042.41;4922486;29;20173;-84
2021/01/10 03:57:31;;;;;;;0.47;0.47;;;;;;;-3.92;87.48;100033.59;4922208;29;20457;-84
2021/01/10 04:00:24;;;;;;;0.50;0.50;;;;;;;-3.86;87.37;100052.28;4890515;29;20463;-83
2021/01/10 04:03:10;;;;;;;0.50;0.50;;;;;;;-3.94;87.41;100023.25;4906847;29;20469;-84
2021/01/10 04:05:52;;;;;;;0.40;0.40;;;;;;;-4.01;87.65;100022.03;4907641;29;20437;-84
2021/01/10 04:08:53;;;;;;;0.40;0.40;;;;;;;-3.96;87.77;100022.50;4909349;29;20438;-83
2021/01/10 04:11:38;;;;;;;0.40;0.40;;;;;;;-3.94;87.70;100027.66;4919714;29;20500;-84
2021/01/10 04:14:28;;;;;;;0.40;0.40;;;;;;;-4.03;87.38;100021.34;4906322;29;20430;-83
2021/01/10 04:17:18;;;;;;;0.50;0.50;;;;;;;-4.07;87.41;100012.06;4922459;29;20433;-83
2021/01/10 04:20:13;;;;;;;0.40;0.40;;;;;;;-4.07;87.63;100025.16;4922151;29;20413;-83
2021/01/10 04:23:05;;;;;;;0.43;0.43;;;;;;;-4.03;87.32;100026.56;4905781;29;20442;-83
2021/01/10 04:25:43;;;;;;;0.40;0.40;;;;;;;-4.09;87.29;100021.78;4907555;29;20434;-83
2021/01/10 04:28:46;;;;;;;0.40;0.40;;;;;;;-4.10;87.66;100023.56;4891823;29;20552;-83
2021/01/10 04:31:45;;;;;;;0.40;0.40;;;;;;;-4.17;87.77;100016.31;4905571;29;20473;-83
2021/01/10 04:34:49;;;;;;;0.40;0.40;;;;;;;-4.18;88.04;100004.19;4922221;29;20451;-85
2021/01/10 04:37:40;;;;;;;0.50;0.50;;;;;;;-4.05;88.03;100031.06;4908186;29;20453;-84
2021/01/10 04:41:26;;;;;;;0.50;0.50;;;;;;;-4.15;88.23;100014.41;4921881;29;20494;-84
2021/01/10 04:44:24;;;;;;;0.47;0.47;;;;;;;-4.22;87.53;100008.81;4921824;29;20516;-84
2021/01/10 04:47:34;;;;;;;0.50;0.50;;;;;;;-4.12;88.00;100022.88;4919830;29;20437;-84
2021/01/10 04:50:20;;;;;;;0.47;0.47;;;;;;;-4.15;88.01;100030.09;4905880;29;20425;-84
2021/01/10 04:53:23;;;;;;;0.40;0.40;;;;;;;-4.10;88.07;100039.28;4922336;29;20437;-84
2021/01/10 04:56:17;;;;;;;0.50;0.50;;;;;;;-4.10;88.02;100046.28;4922039;29;20446;-84
2021/01/10 04:59:38;;;;;;;0.47;0.47;;;;;;;-4.12;88.03;100033.34;4905154;29;20437;-84
2021/01/10 05:02:58;;;;;;;0.50;0.50;;;;;;;-4.16;88.21;100028.47;4916493;29;20474;-83
2021/01/10 05:05:50;;;;;;;0.50;0.50;;;;;;;-4.17;88.35;100026.78;4891718;29;20457;-84
2021/01/10 05:08:40;;;;;;;0.40;0.40;;;;;;;-4.15;88.49;100041.41;4891483;29;20450;-84
2021/01/10 05:11:21;;;;;;;0.40;0.40;;;;;;;-4.14;88.24;100048.31;4891083;29;20481;-83
2021/01/10 05:14:12;;;;;;;0.40;0.40;;;;;;;-4.06;88.02;100047.75;4922168;29;20429;-84
2021/01/10 05:17:09;;;;;;;0.40;0.40;;;;;;;-4.12;88.35;100046.44;4914244;29;20449;-84
2021/01/10 05:20:07;;;;;;;0.40;0.40;;;;;;;-4.16;88.02;100042.38;4908139;29;20457;-84
2021/01/10 05:23:30;;;;;;;0.50;0.50;;;;;;;-4.05;87.69;100068.56;4904004;29;20445;-84
2021/01/10 05:29:53;;;;;;;0.50;0.50;;;;;;;-4.18;87.66;100053.91;4911575;29;20449;-84
2021/01/10 05:33:13;;;;;;;0.40;0.40;;;;;;;-4.12;87.71;100061.28;4921638;29;20457;-83
2021/01/10 05:36:11;;;;;;;0.40;0.40;;;;;;;-4.10;87.56;100067.22;4893805;29;20521;-83
2021/01/10 05:43:03;;;;;;;0.40;0.40;;;;;;;-4.13;87.51;100057.00;4921924;29;20418;-83
2021/01/10 05:46:00;;;;;;;0.40;0.40;;;;;;;-4.06;87.30;100063.47;4905755;29;20457;-83
2021/01/10 05:49:03;;;;;;;0.50;0.50;;;;;;;-4.10;87.28;100056.75;4908783;29;20436;-82
2021/01/10 05:51:50;;;;;;;0.40;0.40;;;;;;;-4.07;87.51;100061.78;4922731;29;20458;-83
2021/01/10 05:55:04;;;;;;;0.40;0.40;;;;;;;-4.15;87.80;100049.25;4910820;29;20430;-83
2021/01/10 05:57:56;;;;;;;0.50;0.50;;;;;;;-4.02;87.49;100072.75;4893685;29;20466;-84
2021/01/10 06:01:02;;;;;;;0.50;0.50;;;;;;;-4.10;87.36;100062.84;4908822;29;20461;-84
2021/01/10 06:04:00;;;;;;;0.40;0.40;;;;;;;-4.10;87.39;100078.53;4924782;29;20422;-83
2021/01/10 06:07:10;;;;;;;0.40;0.40;;;;;;;-4.03;87.57;100081.53;4880519;29;20516;-83
2021/01/10 06:10:16;;;;;;;0.40;0.40;;;;;;;-4.10;87.59;100075.06;4896148;29;20490;-83
2021/01/10 06:13:10;;;;;;;0.43;0.43;;;;;;;-4.07;87.33;100093.19;4896074;29;20484;-84
2021/01/10 06:16:12;;;;;;;0.47;0.47;;;;;;;-4.06;87.58;100095.66;4911295;29;20450;-83
2021/01/10 06:19:11;;;;;;;0.40;0.40;;;;;;;-4.09;87.66;100084.59;4908241;29;20446;-83
2021/01/10 06:22:11;;;;;;;0.50;0.50;;;;;;;-4.08;87.70;100092.34;4911280;29;20430;-82
2021/01/10 06:25:16;;;;;;;0.50;0.50;;;;;;;-4.13;87.53;100085.78;4911363;29;20433;-84
2021/01/10 06:28:22;;;;;;;0.50;0.50;;;;;;;-4.05;87.84;100096.50;4923651;29;20477;-83
2021/01/10 06:31:40;;;;;;;0.50;0.50;;;;;;;-4.18;87.71;100086.13;4908236;29;20477;-83
2021/01/10 06:34:40;;;;;;;0.50;0.50;;;;;;;-4.17;87.69;100073.88;4906323;29;20434;-83
2021/01/10 06:37:32;;;;;;;0.50;0.50;;;;;;;-4.12;88.03;100087.47;4897189;29;20426;-84
2021/01/10 06:40:34;;;;;;;0.40;0.40;;;;;;;-4.14;88.12;100087.56;4905479;29;20533;-84
2021/01/10 06:43:58;;;;;;;0.40;0.40;;;;;;;-4.01;87.98;100116.25;4904667;29;20478;-83
2021/01/10 06:46:55;;;;;;;0.50;0.50;;;;;;;-4.06;87.97;100113.19;4904946;29;20522;-83
2021/01/10 06:50:16;;;;;;;0.50;0.50;;;;;;;-4.05;87.71;100112.22;4875243;29;20431;-83
2021/01/10 06:53:09;;;;;;;0.40;0.40;;;;;;;-4.02;87.62;100106.75;4892178;29;20462;-83
2021/01/10 06:56:14;;;;;;;0.50;0.50;;;;;;;-4.00;88.13;100124.00;4891551;29;20431;-84
2021/01/10 06:59:20;;;;;;;0.50;0.50;;;;;;;-3.89;87.85;100127.59;4888957;29;20475;-83
2021/01/10 07:02:23;;;;;;;0.50;0.50;;;;;;;-3.84;87.72;100126.31;4889452;29;20517;-83
2021/01/10 07:05:28;;;;;;;0.40;0.40;;;;;;;-3.87;87.99;100126.53;4904885;29;20426;-83
2021/01/10 07:08:50;;;;;;;0.40;0.40;;;;;;;-3.82;88.35;100124.41;4900630;29;20473;-83
2021/01/10 07:11:38;;;;;;;0.40;0.40;;;;;;;-3.70;88.14;100138.34;4874338;29;20545;-83
2021/01/10 07:14:50;;;;;;;0.40;0.40;;;;;;;-3.68;88.19;100128.56;4861607;29;20459;-83
2021/01/10 07:18:06;;;;;;;0.43;0.43;;;;;;;-3.55;88.30;100138.00;4892328;29;21076;-83
2021/01/10 07:21:43;;;;;;;0.40;0.40;;;;;;;-3.49;88.64;100131.47;4904189;29;20446;-84
2021/01/10 07:24:37;;;;;;;0.50;0.50;;;;;;;-3.47;88.71;100123.50;4888731;29;20463;-83
2021/01/10 07:28:50;;;;;;;0.43;0.43;;;;;;;-3.36;88.94;100134.78;4912115;29;20217;-84
2021/01/10 07:32:04;;;;;;;0.40;0.40;;;;;;;-3.37;88.62;100116.59;4909478;29;20461;-84
2021/01/10 07:35:16;;;;;;;0.40;0.40;;;;;;;-3.33;88.67;100118.00;4897141;29;20433;-84
2021/01/10 07:37:57;;;;;;;0.40;0.40;;;;;;;-3.26;88.47;100120.03;4909635;29;20465;-84
2021/01/10 07:40:50;;;;;;;0.40;0.40;;;;;;;-3.21;88.29;100115.25;4903185;29;20185;-84
2021/01/10 07:44:09;;;;;;;0.40;0.40;;;;;;;-3.09;88.43;100125.75;4912841;29;20172;-85
2021/01/10 07:47:42;;;;;;;0.50;0.50;;;;;;;-3.17;88.00;100110.59;4913053;29;20249;-84
2021/01/10 07:51:23;;;;;;;0.40;0.40;;;;;;;-3.08;88.00;100111.69;4920834;29;20195;-84
2021/01/10 07:54:55;;;;;;;0.50;0.50;;;;;;;-2.94;88.31;100117.47;4923145;29;20172;-84
2021/01/10 07:58:27;;;;;;;0.50;0.50;;;;;;;-2.88;87.55;100117.00;4908608;29;20513;-85
2021/01/10 08:02:20;;;;;;;0.40;0.40;;;;;;;-2.74;87.87;100132.47;4923224;29;20198;-84
2021/01/10 08:05:59;;;;;;;0.40;0.40;;;;;;;-2.79;88.21;100118.06;4921756;29;20192;-84
2021/01/10 08:09:35;;;;;;;0.40;0.40;;;;;;;-2.68;87.76;100112.78;4921613;29;20185;-85
2021/01/10 08:12:39;;;;;;;0.50;0.50;;;;;;;-2.66;87.77;100116.94;4903605;29;20237;-84
2021/01/10 08:16:17;;;;;;;0.43;0.43;;;;;;;-2.46;87.55;100132.88;4890441;29;20212;-83
2021/01/10 08:19:45;;;;;;;0.40;0.40;;;;;;;-2.51;87.69;100124.53;4920264;29;20192;-84
2021/01/10 08:23:37;;;;;;;0.40;0.40;;;;;;;-2.39;87.89;100131.41;4923325;29;20272;-84
2021/01/10 08:27:01;;;;;;;0.50;0.50;;;;;;;-2.35;87.88;100135.47;4913059;29;20189;-84
2021/01/10 08:38:03;;;;;;;0.40;0.40;;;;;;;-2.15;86.90;100155.66;4923146;29;20238;-85
2021/01/10 08:49:27;;;;;;;0.40;0.40;;;;;;;-2.09;85.53;100157.75;4921386;29;20261;-86
2021/01/10 09:02:23;;;;;;;0.40;0.40;;;;;;;-1.90;85.09;100168.41;4829880;29;20225;-85
2021/01/10 09:10:22;;;;;;;0.40;0.40;;;;;;;-1.73;85.28;100160.94;4775653;30;20249;-84
2021/01/10 09:18:07;;;;;;;0.40;0.40;;;;;;;-1.72;84.59;100160.78;4776309;30;20178;-86
2021/01/10 09:22:23;;;;;;;0.40;0.40;;;;;;;-1.58;84.40;100176.22;4858269;29;20191;-86
2021/01/10 09:34:13;;;;;;;0.40;0.40;;;;;;;-1.44;84.44;100172.44;4868979;29;20183;-85
2021/01/10 09:42:16;;;;;;;0.40;0.40;;;;;;;-1.18;84.25;100194.72;4814365;29;20210;-85
2021/01/10 09:46:07;;;;;;;0.40;0.40;;;;;;;-1.19;83.34;100193.06;4864335;29;20181;-85
2021/01/10 09:49:34;;;;;;;0.40;0.40;;;;;;;-1.11;82.81;100208.16;4925311;29;20204;-85
2021/01/10 09:53:47;;;;;;;0.40;0.40;;;;;;;-1.21;82.92;100187.09;4919614;29;20196;-85
2021/01/10 10:00:24;;;;;;;0.40;0.40;;;;;;;-1.05;82.61;100190.09;4924636;29;20204;-84
2021/01/10 10:03:26;;;;;;;0.40;0.40;;;;;;;-1.03;82.61;100179.44;4893822;29;20214;-84
2021/01/10 10:06:56;;;;;;;0.40;0.40;;;;;;;-0.96;82.41;100181.41;4881245;29;20224;-85
2021/01/10 10:10:08;;;;;;;0.40;0.40;;;;;;;-1.03;81.70;100172.38;4924820;29;20214;-85
2021/01/10 10:13:37;;;;;;;0.40;0.40;;;;;;;-0.89;82.60;100169.38;4911389;29;20208;-85
2021/01/10 10:16:50;;;;;;;0.40;0.40;;;;;;;-0.94;81.83;100161.06;4921525;29;20197;-85
2021/01/10 10:20:30;;;;;;;0.40;0.40;;;;;;;-0.92;82.03;100156.50;4924378;29;20178;-84
2021/01/10 10:23:25;;;;;;;0.40;0.40;;;;;;;-0.76;82.24;100160.41;4923056;29;20185;-84
2021/01/10 10:26:43;;;;;;;0.40;0.40;;;;;;;-0.70;81.94;100159.88;4895832;29;20222;-84
2021/01/10 10:30:06;;;;;;;0.40;0.40;;;;;;;-0.73;80.79;100141.72;4923545;29;20182;-85
2021/01/10 10:33:58;;;;;;;0.30;0.30;;;;;;;-0.55;81.05;100155.88;4849318;29;20218;-84
2021/01/10 10:36:55;;;;;;;0.40;0.40;;;;;;;-0.61;80.12;100141.50;4835467;29;20180;-84
2021/01/10 10:39:59;;;;;;;0.37;0.37;;;;;;;-0.58;79.81;100143.84;4837154;29;20208;-84
2021/01/10 10:42:51;;;;;;;0.40;0.40;;;;;;;-0.65;79.08;100133.97;4849125;29;20168;-83
2021/01/10 10:45:40;;;;;;;0.40;0.40;;;;;;;-0.54;79.85;100134.69;4848889;29;20191;-84
2021/01/10 10:49:02;;;;;;;0.40;0.40;;;;;;;-0.57;79.69;100113.94;4866874;29;20214;-84
2021/01/10 10:52:46;;;;;;;0.40;0.40;;;;;;;-0.53;79.94;100106.59;4851990;29;20216;-85
2021/01/10 10:56:07;;;;;;;0.40;0.40;;;;;;;-0.38;80.57;100114.91;4787270;29;20211;-84
2021/01/10 11:08:50;;;;;;;;;;;;;;;;;;;;;
2021/01/10 11:16:39;;;;;;;0.50;0.50;;;;;;;-0.40;79.45;100072.06;4704675;30;20205;-84
2021/01/10 11:20:28;;;;;;;0.40;0.40;;;;;;;-0.33;78.83;100075.84;4722999;30;20204;-84
2021/01/10 11:23:46;;;;;;;0.40;0.40;;;;;;;-0.29;78.69;100072.78;4743703;30;20208;-84
2021/01/10 11:26:49;;;;;;;0.40;0.40;;;;;;;-0.33;78.74;100075.84;4740599;30;20204;-84
2021/01/10 11:30:04;;;;;;;0.40;0.40;;;;;;;-0.23;78.66;100093.28;4740722;30;20202;-85
2021/01/10 11:33:21;;;;;;;0.40;0.40;;;;;;;-0.21;79.09;100077.34;4729113;30;20219;-84
2021/01/10 11:36:39;;;;;;;0.40;0.40;;;;;;;-0.19;79.55;100067.50;4740307;30;20187;-84
2021/01/10 11:39:30;;;;;;;0.40;0.40;;;;;;;-0.21;79.69;100053.63;4701188;30;20215;-84
2021/01/10 11:42:44;;;;;;;0.40;0.40;;;;;;;-0.08;79.27;100062.91;4740499;30;20226;-84
2021/01/10 11:46:08;;;;;;;0.40;0.40;;;;;;;-0.14;79.01;100050.28;4740998;30;20204;-84
2021/01/10 11:53:35;;;;;;;0.40;0.40;;;;;;;-0.02;79.34;100059.72;4830018;29;20208;-85
2021/01/10 11:56:42;;;;;;;0.40;0.40;;;;;;;-0.05;78.87;100043.38;4849298;29;20209;-85
2021/01/10 12:04:09;;;;;;;0.40;0.40;;;;;;;0.13;77.79;100052.19;4904426;29;20178;-83
2021/01/10 12:07:36;;;;;;;0.40;0.40;;;;;;;0.08;78.28;100049.16;4911021;29;20173;-84
2021/01/10 12:11:03;;;;;;;0.30;0.30;;;;;;;0.12;78.53;100047.06;4921315;29;20205;-84
2021/01/10 12:18:16;;;;;;;0.40;0.40;;;;;;;0.13;78.44;100046.94;4900762;29;20216;-84
2021/01/10 12:21:18;;;;;;;0.40;0.40;;;;;;;0.09;77.86;100045.56;4897511;29;20257;-84
2021/01/10 12:25:05;;;;;;;0.40;0.40;;;;;;;0.12;78.04;100047.91;4904466;29;20181;-84
2021/01/10 12:28:27;;;;;;;0.30;0.30;;;;;;;0.11;77.98;100046.22;4904315;29;20189;-84
2021/01/10 12:31:53;;;;;;;0.40;0.40;;;;;;;0.18;77.73;100047.34;4892232;29;20198;-85
2021/01/10 12:35:20;;;;;;;0.30;0.30;;;;;;;0.20;77.89;100041.91;4902886;29;20249;-84
2021/01/10 12:39:13;;;;;;;0.30;0.30;;;;;;;0.11;78.12;100027.78;4903290;29;20205;-85
2021/01/10 12:42:07;;;;;;;0.40;0.40;;;;;;;0.03;78.24;100013.66;4896354;29;20222;-85
2021/01/10 12:45:18;;;;;;;0.40;0.40;;;;;;;0.02;78.10;100014.63;4903830;29;20175;-85
2021/01/10 12:48:41;;;;;;;0.40;0.40;;;;;;;0.15;78.19;100015.16;4912769;29;20220;-84
2021/01/10 12:52:31;;;;;;;0.40;0.40;;;;;;;0.14;77.74;100010.88;4838839;29;20243;-85
2021/01/10 12:56:58;;;;;;;0.40;0.40;;;;;;;0.11;78.15;100004.06;4851067;29;20210;-85
2021/01/10 12:59:51;;;;;;;0.40;0.40;;;;;;;0.01;77.46;99998.00;4868225;29;20206;-85
2021/01/10 13:02:51;;;;;;;0.40;0.40;;;;;;;-0.01;77.95;99995.53;4875348;29;20202;-85
2021/01/10 13:05:51;;;;;;;0.40;0.40;;;;;;;0.00;78.09;99999.78;4863925;29;20213;-84
2021/01/10 13:09:12;;;;;;;0.30;0.30;;;;;;;0.01;78.28;99987.47;4874691;29;20225;-85
2021/01/10 13:12:38;;;;;;;0.40;0.40;;;;;;;0.08;78.02;100003.53;4879245;29;20222;-85
2021/01/10 13:15:36;;;;;;;0.40;0.40;;;;;;;-0.03;77.81;99992.19;4854421;29;20206;-85
2021/01/10 13:18:34;;;;;;;0.40;0.40;;;;;;;0.02;77.60;99996.19;4888095;29;20198;-86
2021/01/10 13:25:54;;;;;;;0.30;0.30;;;;;;;0.03;77.71;99992.59;4850449;29;20188;-86
2021/01/10 13:28:49;;;;;;;0.40;0.40;;;;;;;-0.08;78.04;99977.78;4848549;29;20207;-85
2021/01/10 13:36:33;;;;;;;0.30;0.30;;;;;;;-0.06;78.32;99965.31;4850368;29;20184;-85
2021/01/10 13:44:06;;;;;;;0.40;0.40;;;;;;;-0.01;78.20;99981.53;4907025;29;20165;-85
2021/01/10 13:47:33;;;;;;;0.40;0.40;;;;;;;0.02;78.74;99989.13;4907037;29;20187;-85
2021/01/10 13:51:08;;;;;;;0.40;0.40;;;;;;;0.03;78.71;99993.44;4890780;29;20230;-85
2021/01/10 13:54:56;;;;;;;0.40;0.40;;;;;;;0.09;78.98;99992.88;4887376;29;20211;-85
2021/01/10 13:57:52;;;;;;;0.30;0.30;;;;;;;0.05;79.18;99993.28;4906671;29;20198;-85
2021/01/10 14:01:17;;;;;;;0.40;0.40;;;;;;;0.06;79.38;100000.19;4904455;29;20201;-84
2021/01/10 14:04:34;;;;;;;0.30;0.30;;;;;;;0.00;79.22;99997.16;4924534;29;20193;-85
2021/01/10 14:08:23;;;;;;;0.40;0.40;;;;;;;0.01;80.02;99992.72;4921679;29;20265;-85
2021/01/10 14:11:44;;;;;;;0.40;0.40;;;;;;;-0.09;79.78;99984.84;4917144;29;20222;-85
2021/01/10 14:18:54;;;;;;;;;;;;;;;;;;;;;
2021/01/10 14:22:46;;;;;;;0.40;0.40;;;;;;;-0.11;80.33;100014.94;4925428;29;20176;-84
2021/01/10 14:31:34;;;;;;;0.40;0.40;;;;;;;-0.25;80.84;100003.06;4849835;29;20216;-85
2021/01/10 14:47:24;;;;;;;0.40;0.40;;;;;;;-0.36;81.73;100020.81;5185890;24;20240;-86
2021/01/10 14:52:06;;;;;;;;;;;;;;;;;;;;;
2021/01/10 15:00:32;;;;;;;0.33;0.33;;;;;;;-0.52;82.64;100016.13;4835165;29;20222;-86
2021/01/10 15:09:08;;;;;;;0.40;0.40;;;;;;;-0.51;83.16;100021.22;4831005;29;20193;-86
2021/01/10 15:12:27;;;;;;;0.50;0.50;;;;;;;-0.64;83.59;100025.94;4776748;30;20225;-86
2021/01/10 15:42:10;;;;;;;0.40;0.40;;;;;;;-0.77;85.24;100029.81;4812858;29;20200;-86
2021/01/10 15:51:12;;;;;;;0.40;0.40;;;;;;;-0.88;84.80;100020.25;4812520;29;20222;-86
2021/01/10 16:14:20;;;;;;;0.40;0.40;;;;;;;-0.86;84.86;100036.75;5087868;24;20236;-85
2021/01/10 16:17:42;;;;;;;0.40;0.40;;;;;;;-0.82;84.76;100038.13;4941513;29;20196;-85
2021/01/10 16:20:43;;;;;;;0.40;0.40;;;;;;;-0.94;85.26;100026.09;4883956;29;20232;-85
2021/01/10 16:23:41;;;;;;;0.40;0.40;;;;;;;-0.84;85.36;100039.25;4940766;29;20208;-85
2021/01/10 16:27:34;;;;;;;0.40;0.40;;;;;;;-0.96;84.87;100025.38;4940633;29;20181;-85
2021/01/10 16:31:16;;;;;;;0.40;0.40;;;;;;;-0.96;85.08;100028.00;4930945;29;20203;-85
2021/01/10 16:34:14;;;;;;;0.40;0.40;;;;;;;-1.02;85.31;100029.38;4940473;29;20211;-85
2021/01/10 16:42:16;;;;;;;0.40;0.40;;;;;;;-1.04;85.90;100023.44;4918446;29;20192;-85
2021/01/10 16:46:17;;;;;;;0.40;0.40;;;;;;;-1.00;85.67;100040.59;4921839;29;20178;-85
2021/01/10 16:50:01;;;;;;;0.30;0.30;;;;;;;-1.08;86.00;100026.47;4902961;29;20205;-84
2021/01/10 16:57:55;;;;;;;0.37;0.37;;;;;;;-1.15;85.95;100026.19;4902865;29;20193;-85
2021/01/10 17:01:19;;;;;;;0.40;0.40;;;;;;;-1.13;86.14;100032.16;4901133;29;20265;-85
2021/01/10 17:04:39;;;;;;;0.40;0.40;;;;;;;-1.18;86.15;100023.81;4905517;29;20208;-86
2021/01/10 17:08:30;;;;;;;0.33;0.33;;;;;;;-1.15;86.36;100030.59;4913631;29;20182;-86
2021/01/10 17:13:13;;;;;;;0.40;0.40;;;;;;;-1.18;86.36;100023.81;4921794;29;20236;-85
2021/01/10 17:16:40;;;;;;;0.40;0.40;;;;;;;-1.22;86.64;100024.22;4913080;29;20245;-85
2021/01/10 17:20:34;;;;;;;0.40;0.40;;;;;;;-1.25;86.35;100038.47;4875486;29;20246;-85
2021/01/10 17:28:12;;;;;;;0.40;0.40;;;;;;;-1.34;86.81;100041.91;4919442;29;20192;-86
2021/01/10 17:31:06;;;;;;;0.40;0.40;;;;;;;-1.40;86.97;100029.31;4893559;29;20268;-86
2021/01/10 17:39:11;;;;;;;0.40;0.40;;;;;;;-1.34;86.98;100034.00;4922694;29;20186;-84
2021/01/10 17:46:31;;;;;;;0.40;0.40;;;;;;;-1.46;87.06;100029.84;4912469;29;20201;-86
2021/01/10 17:49:56;;;;;;;0.40;0.40;;;;;;;-1.48;87.18;100031.75;4896527;29;20192;-85
2021/01/10 17:53:17;;;;;;;0.40;0.40;;;;;;;-1.51;87.00;100030.22;4885350;29;20222;-86
2021/01/10 18:01:35;;;;;;;0.30;0.30;;;;;;;-1.51;86.98;100050.41;4887485;29;20195;-86
2021/01/10 18:09:41;;;;;;;0.40;0.40;;;;;;;-1.57;87.38;100053.56;4850378;29;20183;-85
2021/01/10 18:13:18;;;;;;;0.40;0.40;;;;;;;-1.62;87.10;100053.13;4834464;29;20238;-86
2021/01/10 18:16:42;;;;;;;0.40;0.40;;;;;;;-1.65;87.49;100048.16;4799712;29;20267;-86
2021/01/10 18:20:58;;;;;;;0.50;0.50;;;;;;;-1.88;87.21;100034.34;4800822;29;20194;-85
2021/01/10 18:28:58;;;;;;;0.40;0.40;;;;;;;-1.84;87.97;100046.25;4760043;30;20195;-84
2021/01/10 18:33:10;;;;;;;0.50;0.50;;;;;;;-1.88;87.96;100043.06;4742107;30;20214;-86
2021/01/10 18:40:55;;;;;;;0.40;0.40;;;;;;;-2.00;88.19;100043.25;4742242;30;20200;-85
2021/01/10 18:44:15;;;;;;;0.40;0.40;;;;;;;-2.10;87.90;100039.78;4741929;30;20228;-84
2021/01/10 18:47:47;;;;;;;0.40;0.40;;;;;;;-2.18;88.06;100036.94;4742065;30;20247;-84
2021/01/10 18:55:26;;;;;;;0.40;0.40;;;;;;;-2.38;88.26;100028.13;4789058;29;20218;-86
2021/01/10 19:02:57;;;;;;;0.40;0.40;;;;;;;-2.49;87.79;100025.53;4806181;29;20243;-84
2021/01/10 19:06:40;;;;;;;0.40;0.40;;;;;;;-2.59;87.98;100024.63;4798739;29;20256;-84
2021/01/10 19:10:25;;;;;;;0.40;0.40;;;;;;;-2.54;88.08;100039.03;4794966;30;20205;-82
2021/01/10 19:13:42;;;;;;;0.40;0.40;;;;;;;-2.72;88.27;100019.56;4783936;30;20229;-85
2021/01/10 19:17:08;;;;;;;0.40;0.40;;;;;;;-2.68;87.84;100023.59;4781042;29;20324;-85
2021/01/10 19:23:56;;;;;;;0.40;0.40;;;;;;;-2.68;87.91;100027.06;4812547;29;20200;-84
2021/01/10 19:27:20;;;;;;;0.50;0.50;;;;;;;-2.77;88.06;100030.44;4795984;29;20181;-84
2021/01/10 19:35:33;;;;;;;0.40;0.40;;;;;;;-2.92;88.13;100013.31;4850255;29;20178;-84
2021/01/10 19:38:47;;;;;;;0.40;0.40;;;;;;;-2.83;88.14;100024.84;4858062;29;20186;-84
2021/01/10 19:42:00;;;;;;;0.40;0.40;;;;;;;-2.93;88.17;100018.69;4869750;29;20202;-84
2021/01/10 19:45:09;;;;;;;0.40;0.40;;;;;;;-2.95;88.12;100010.97;4885098;29;20273;-84
2021/01/10 19:48:12;;;;;;;0.40;0.40;;;;;;;-3.00;88.24;100007.88;4871340;29;20249;-85
2021/01/10 19:51:37;;;;;;;0.40;0.40;;;;;;;-2.98;88.33;100016.44;4885019;29;20183;-83
2021/01/10 19:55:01;;;;;;;0.50;0.50;;;;;;;-3.03;88.19;100007.31;4885210;29;20193;-83
2021/01/10 19:58:15;;;;;;;0.40;0.40;;;;;;;-3.02;88.38;100015.03;4873870;29;20187;-83
2021/01/10 20:01:35;;;;;;;0.50;0.50;;;;;;;-3.03;88.25;100004.69;4883497;29;20198;-84
2021/01/10 20:05:02;;;;;;;0.40;0.40;;;;;;;-3.20;88.07;99990.31;4874670;29;20199;-84
2021/01/10 20:08:13;;;;;;;0.30;0.30;;;;;;;-3.11;88.55;100007.91;4871702;29;20233;-84
2021/01/10 20:11:29;;;;;;;0.40;0.40;;;;;;;-3.25;87.90;99989.84;4920160;29;20209;-84
2021/01/10 20:15:27;;;;;;;0.40;0.40;;;;;;;-3.19;88.14;99999.84;4907243;29;20215;-84
2021/01/10 20:18:29;;;;;;;0.50;0.50;;;;;;;-3.32;88.21;99988.69;4888830;29;20340;-84
2021/01/10 20:21:40;;;;;;;0.50;0.50;;;;;;;-3.28;87.62;100004.03;4903643;29;20186;-85
2021/01/10 20:24:54;;;;;;;0.40;0.40;;;;;;;-3.36;87.76;99989.88;4883989;29;20193;-84
2021/01/10 20:27:43;;;;;;;0.47;0.47;;;;;;;-3.35;87.57;99989.75;4887962;29;20186;-84
2021/01/10 20:31:24;;;;;;;0.40;0.40;;;;;;;-3.40;87.74;99989.28;4895853;24;20232;-84
2021/01/10 20:34:22;;;;;;;0.40;0.40;;;;;;;-3.37;87.59;100010.00;4890274;29;20189;-84
2021/01/10 20:37:40;;;;;;;0.40;0.40;;;;;;;-3.36;87.81;100006.41;4882647;29;20462;-84
2021/01/10 20:40:27;;;;;;;0.40;0.40;;;;;;;-3.36;87.39;100013.47;4874436;29;20292;-84
2021/01/10 20:43:35;;;;;;;0.40;0.40;;;;;;;-3.42;87.30;100006.91;4903272;29;20463;-84
2021/01/10 20:46:53;;;;;;;0.40;0.40;;;;;;;-3.52;87.47;99987.63;4902366;29;20450;-84
2021/01/10 20:50:00;;;;;;;0.40;0.40;;;;;;;-3.57;87.49;99993.25;4902100;29;20467;-84
2021/01/10 20:53:46;;;;;;;0.40;0.40;;;;;;;-3.64;87.75;99986.00;4894531;29;20200;-83